createdAt,value
2016-06-15T00:00:20.065Z,0
2016-06-15T00:01:20.069Z,0
2016-06-15T00:02:20.213Z,0
2016-06-15T00:03:20.231Z,0
2016-06-15T00:04:20.859Z,0
2016-06-15T00:05:20.128Z,0
2016-06-15T00:06:21.615Z,0
2016-06-15T00:07:20.806Z,0
2016-06-15T00:08:21.106Z,0
2016-06-15T00:09:20.187Z,0
2016-06-15T00:10:20.347Z,0
2016-06-15T00:11:20.693Z,0
2016-06-15T00:12:20.291Z,0
2016-06-15T00:13:20.183Z,0
2016-06-15T00:14:20.187Z,0
2016-06-15T00:16:20.193Z,0
2016-06-15T00:17:20.181Z,0
2016-06-15T00:18:20.184Z,0
2016-06-15T00:19:21.390Z,0
2016-06-15T00:20:20.690Z,0
2016-06-15T00:21:20.365Z,0
2016-06-15T00:22:20.571Z,0
2016-06-15T00:23:20.168Z,0
2016-06-15T00:24:20.952Z,0
2016-06-15T00:25:21.362Z,0
2016-06-15T00:26:20.739Z,0
2016-06-15T00:27:20.305Z,0
2016-06-15T00:28:20.151Z,0
2016-06-15T00:29:20.155Z,0
2016-06-15T00:30:20.173Z,0
2016-06-15T00:31:20.770Z,0
2016-06-15T00:32:22.133Z,0
2016-06-15T00:33:20.964Z,0
2016-06-15T00:34:20.139Z,0
2016-06-15T00:35:20.157Z,0
2016-06-15T00:36:20.146Z,0
2016-06-15T00:37:20.132Z,0
2016-06-15T00:38:20.135Z,0
2016-06-15T00:39:20.139Z,0
2016-06-15T00:40:20.127Z,0
2016-06-15T00:41:20.129Z,0
2016-06-15T00:42:20.133Z,0
2016-06-15T00:43:20.120Z,0
2016-06-15T00:44:20.123Z,0
2016-06-15T00:45:20.126Z,0
2016-06-15T00:46:20.113Z,0
2016-06-15T00:47:20.116Z,0
2016-06-15T00:48:20.119Z,0
2016-06-15T00:49:20.107Z,0
2016-06-15T00:50:20.266Z,0
2016-06-15T00:51:20.114Z,0
2016-06-15T00:52:20.100Z,0
2016-06-15T00:53:20.104Z,0
2016-06-15T00:54:20.091Z,0
2016-06-15T00:55:19.938Z,0
2016-06-15T00:56:20.097Z,0
2016-06-15T00:57:20.100Z,0
2016-06-15T00:58:20.119Z,0
2016-06-15T00:59:20.158Z,0
2016-06-15T01:00:20.198Z,0
2016-06-15T01:01:20.221Z,0
2016-06-15T01:02:20.260Z,0
2016-06-15T01:03:20.109Z,0
2016-06-15T01:04:20.282Z,0
2016-06-15T01:05:20.360Z,0
2016-06-15T01:06:20.298Z,0
2016-06-15T01:07:20.330Z,0
2016-06-15T01:08:20.323Z,0
2016-06-15T01:09:20.316Z,0
2016-06-15T01:10:20.323Z,0
2016-06-15T01:11:20.332Z,0
2016-06-15T01:12:20.167Z,0
2016-06-15T01:13:20.345Z,0
2016-06-15T01:14:20.334Z,0
2016-06-15T01:15:20.354Z,0
2016-06-15T01:16:20.328Z,0
2016-06-15T01:17:20.332Z,0
2016-06-15T01:18:20.337Z,0
2016-06-15T01:19:20.324Z,0
2016-06-15T01:20:20.875Z,0
2016-06-15T01:21:20.317Z,0
2016-06-15T01:22:20.321Z,0
2016-06-15T01:23:20.308Z,0
2016-06-15T01:24:20.467Z,0
2016-06-15T01:25:20.314Z,0
2016-06-15T01:26:20.755Z,0
2016-06-15T01:27:20.868Z,0
2016-06-15T01:28:20.667Z,0
2016-06-15T01:29:20.608Z,0
2016-06-15T01:30:20.157Z,0
2016-06-15T01:31:20.318Z,0
2016-06-15T01:32:20.304Z,0
2016-06-15T01:33:21.902Z,0
2016-06-15T01:34:20.341Z,0
2016-06-15T01:35:21.798Z,0
2016-06-15T01:36:20.285Z,0
2016-06-15T01:37:20.445Z,0
2016-06-15T01:38:20.276Z,0
2016-06-15T01:39:20.279Z,0
2016-06-15T01:40:20.282Z,0
2016-06-15T01:42:20.272Z,0
2016-06-15T01:43:21.494Z,0
2016-06-15T01:44:20.279Z,0
2016-06-15T01:45:20.438Z,0
2016-06-15T01:46:20.284Z,0
2016-06-15T01:47:20.256Z,0
2016-06-15T01:48:20.479Z,0
2016-06-15T01:49:20.294Z,0
2016-06-15T01:50:21.016Z,0
2016-06-15T01:51:21.691Z,0
2016-06-15T01:52:21.553Z,0
2016-06-15T01:53:20.744Z,4
2016-06-15T01:54:20.997Z,4
2016-06-15T01:55:20.266Z,4
2016-06-15T01:56:20.269Z,0
2016-06-15T01:57:20.459Z,4
2016-06-15T01:58:20.243Z,4
2016-06-15T01:59:20.247Z,4
2016-06-15T02:00:20.250Z,4
2016-06-15T02:01:20.238Z,4
2016-06-15T02:02:20.225Z,4
2016-06-15T02:03:20.228Z,8
2016-06-15T02:04:20.231Z,4
2016-06-15T02:05:20.703Z,8
2016-06-15T02:06:20.237Z,8
2016-06-15T02:07:20.224Z,8
2016-06-15T02:08:20.227Z,8
2016-06-15T02:09:20.215Z,8
2016-06-15T02:10:20.218Z,12
2016-06-15T02:11:20.222Z,12
2016-06-15T02:12:20.225Z,12
2016-06-15T02:13:20.212Z,16
2016-06-15T02:14:20.215Z,20
2016-06-15T02:15:20.203Z,20
2016-06-15T02:16:20.049Z,24
2016-06-15T02:17:20.209Z,24
2016-06-15T02:18:20.040Z,28
2016-06-15T02:19:20.215Z,32
2016-06-15T02:20:20.655Z,36
2016-06-15T02:21:20.064Z,40
2016-06-15T02:22:20.193Z,48
2016-06-15T02:23:20.195Z,48
2016-06-15T02:24:20.184Z,52
2016-06-15T02:25:20.186Z,56
2016-06-15T02:26:20.204Z,64
2016-06-15T02:27:20.379Z,72
2016-06-15T02:28:20.024Z,80
2016-06-15T02:29:20.182Z,84
2016-06-15T02:30:20.170Z,92
2016-06-15T02:31:20.172Z,100
2016-06-15T02:32:20.176Z,112
2016-06-15T02:33:20.164Z,120
2016-06-15T02:34:20.167Z,132
2016-06-15T02:35:20.357Z,144
2016-06-15T02:36:20.157Z,156
2016-06-15T02:37:20.145Z,172
2016-06-15T02:38:20.148Z,192
2016-06-15T02:39:20.151Z,208
2016-06-15T02:40:20.154Z,228
2016-06-15T02:41:20.158Z,244
2016-06-15T02:42:20.144Z,268
2016-06-15T02:43:21.585Z,288
2016-06-15T02:44:35.667Z,320
2016-06-15T02:45:20.341Z,340
2016-06-15T02:46:20.829Z,368
2016-06-15T02:47:20.129Z,392
2016-06-15T02:48:20.132Z,416
2016-06-15T02:49:20.119Z,436
2016-06-15T02:50:20.514Z,452
2016-06-15T02:51:20.125Z,476
2016-06-15T02:52:21.676Z,496
2016-06-15T02:53:34.287Z,524
2016-06-15T02:54:20.135Z,544
2016-06-15T02:55:20.669Z,568
2016-06-15T02:56:20.110Z,592
2016-06-15T02:57:20.174Z,624
2016-06-15T02:58:20.194Z,656
2016-06-15T02:59:21.383Z,696
2016-06-15T03:00:20.091Z,736
2016-06-15T03:01:20.515Z,772
2016-06-15T03:02:20.738Z,816
2016-06-15T03:03:20.490Z,860
2016-06-15T03:04:20.353Z,900
2016-06-15T03:05:20.387Z,940
2016-06-15T03:06:20.906Z,976
2016-06-15T03:07:20.081Z,1012
2016-06-15T03:08:22.303Z,1048
2016-06-15T03:09:21.478Z,1092
2016-06-15T03:10:20.324Z,1132
2016-06-15T03:11:21.468Z,1184
2016-06-15T03:12:20.831Z,1240
2016-06-15T03:13:20.881Z,1328
2016-06-15T03:14:20.759Z,1436
2016-06-15T03:15:20.137Z,1540
2016-06-15T03:16:20.061Z,1620
2016-06-15T03:17:19.909Z,1692
2016-06-15T03:18:20.052Z,1768
2016-06-15T03:19:20.055Z,1828
2016-06-15T03:20:20.058Z,1876
2016-06-15T03:21:20.467Z,1924
2016-06-15T03:22:20.048Z,2016
2016-06-15T03:23:20.052Z,2156
2016-06-15T03:24:20.054Z,2188
2016-06-15T03:25:20.043Z,2208
2016-06-15T03:26:20.046Z,2280
2016-06-15T03:27:20.049Z,2412
2016-06-15T03:28:20.036Z,2612
2016-06-15T03:29:20.039Z,2872
2016-06-15T03:30:20.042Z,3012
2016-06-15T03:31:20.029Z,3168
2016-06-15T03:32:20.032Z,3324
2016-06-15T03:33:20.035Z,3456
2016-06-15T03:34:20.024Z,3556
2016-06-15T03:35:20.182Z,3620
2016-06-15T03:36:20.967Z,3648
2016-06-15T03:37:20.033Z,3668
2016-06-15T03:38:20.020Z,3700
2016-06-15T03:39:20.023Z,3744
2016-06-15T03:40:20.010Z,3804
2016-06-15T03:41:20.013Z,3904
2016-06-15T03:42:20.032Z,4056
2016-06-15T03:43:20.019Z,4256
2016-06-15T03:44:20.022Z,4520
2016-06-15T03:45:19.870Z,4828
2016-06-15T03:46:20.013Z,5136
2016-06-15T03:47:20.001Z,5428
2016-06-15T03:48:20.003Z,5712
2016-06-15T03:49:20.007Z,6008
2016-06-15T03:50:20.009Z,6392
2016-06-15T03:51:19.716Z,6848
2016-06-15T03:52:20.015Z,7340
2016-06-15T03:53:20.004Z,7852
2016-06-15T03:54:20.006Z,8300
2016-06-15T03:55:20.025Z,8688
2016-06-15T03:56:19.997Z,8892
2016-06-15T03:57:20.000Z,9160
2016-06-15T03:58:19.988Z,10860
2016-06-15T03:59:20.006Z,11112
2016-06-15T04:00:20.009Z,10656
2016-06-15T04:01:21.107Z,12072
2016-06-15T04:02:19.999Z,13184
2016-06-15T04:03:20.003Z,13536
2016-06-15T04:04:20.005Z,13632
2016-06-15T04:05:20.697Z,12264
2016-06-15T04:06:20.106Z,10664
2016-06-15T04:07:20.015Z,10704
2016-06-15T04:08:20.268Z,10396
2016-06-15T04:09:20.006Z,10252
2016-06-15T04:10:22.118Z,13120
2016-06-15T04:11:34.184Z,13888
2016-06-15T04:12:20.265Z,13088
2016-06-15T04:13:34.330Z,14048
2016-06-15T04:14:34.193Z,14592
2016-06-15T04:15:20.009Z,15040
2016-06-15T04:16:20.011Z,15424
2016-06-15T04:17:20.031Z,14080
2016-06-15T04:18:35.456Z,11764
2016-06-15T04:19:20.037Z,10304
2016-06-15T04:20:21.337Z,9972
2016-06-15T04:21:19.902Z,12164
2016-06-15T04:22:20.311Z,10100
2016-06-15T04:23:20.049Z,9308
2016-06-15T04:24:20.053Z,9124
2016-06-15T04:25:20.055Z,9268
2016-06-15T04:26:20.074Z,9288
2016-06-15T04:27:20.404Z,9300
2016-06-15T04:28:21.049Z,9320
2016-06-15T04:29:20.927Z,9336
2016-06-15T04:30:20.164Z,9344
2016-06-15T04:31:20.589Z,9548
2016-06-15T04:32:20.108Z,9872
2016-06-15T04:33:20.580Z,10108
2016-06-15T04:34:20.286Z,10376
2016-06-15T04:35:20.101Z,10632
2016-06-15T04:36:20.011Z,10844
2016-06-15T04:37:20.123Z,11008
2016-06-15T04:38:20.142Z,11164
2016-06-15T04:39:20.129Z,11292
2016-06-15T04:40:20.133Z,11412
2016-06-15T04:41:20.151Z,11556
2016-06-15T04:42:20.154Z,11652
2016-06-15T04:43:20.157Z,11688
2016-06-15T04:44:20.003Z,11608
2016-06-15T04:45:20.163Z,11480
2016-06-15T04:46:20.167Z,11392
2016-06-15T04:47:20.169Z,11432
2016-06-15T04:48:20.173Z,11556
2016-06-15T04:49:20.176Z,11924
2016-06-15T04:50:20.179Z,13232
2016-06-15T04:51:20.041Z,14596
2016-06-15T04:52:20.200Z,11308
2016-06-15T04:53:20.203Z,12264
2016-06-15T04:54:20.206Z,11652
2016-06-15T04:55:20.209Z,12144
2016-06-15T04:56:20.212Z,11724
2016-06-15T04:57:20.060Z,11444
2016-06-15T04:58:20.218Z,11408
2016-06-15T04:59:20.222Z,11356
2016-06-15T05:00:20.240Z,11336
2016-06-15T05:01:20.244Z,11184
2016-06-15T05:02:20.231Z,11128
2016-06-15T05:03:20.234Z,10636
2016-06-15T05:04:20.237Z,10236
2016-06-15T05:05:20.100Z,10076
2016-06-15T05:06:20.774Z,9740
2016-06-15T05:07:20.262Z,9632
2016-06-15T05:08:20.281Z,9000
2016-06-15T05:09:20.268Z,9068
2016-06-15T05:10:20.272Z,9324
2016-06-15T05:11:20.274Z,10092
2016-06-15T05:12:20.278Z,9124
2016-06-15T05:13:20.156Z,9668
2016-06-15T05:14:20.299Z,8956
2016-06-15T05:15:20.287Z,9360
2016-06-15T05:16:20.290Z,8604
2016-06-15T05:17:20.293Z,8432
2016-06-15T05:18:20.311Z,8252
2016-06-15T05:19:20.331Z,8184
2016-06-15T05:20:20.567Z,8164
2016-06-15T05:21:20.868Z,8164
2016-06-15T05:22:20.714Z,8148
2016-06-15T05:24:20.876Z,8192
2016-06-15T05:25:20.490Z,8320
2016-06-15T05:26:20.539Z,8456
2016-06-15T05:27:20.183Z,8620
2016-06-15T05:28:20.342Z,8792
2016-06-15T05:29:21.924Z,8920
2016-06-15T05:30:20.348Z,8936
2016-06-15T05:31:20.195Z,8788
2016-06-15T05:32:21.104Z,8500
2016-06-15T05:33:20.357Z,8228
2016-06-15T05:34:20.360Z,8060
2016-06-15T05:35:20.364Z,7996
2016-06-15T05:36:21.632Z,7972
2016-06-15T05:37:20.369Z,7948
2016-06-15T05:38:21.216Z,7892
2016-06-15T05:39:21.454Z,7828
2016-06-15T05:40:21.332Z,7848
2016-06-15T05:41:20.398Z,7956
2016-06-15T05:42:21.385Z,8100
2016-06-15T05:43:20.387Z,8208
2016-06-15T05:44:20.485Z,8272
2016-06-15T05:46:21.961Z,8304
2016-06-15T05:47:21.869Z,8260
2016-06-15T05:48:20.404Z,8208
2016-06-15T05:49:21.031Z,8224
2016-06-15T05:50:20.722Z,8264
2016-06-15T05:51:21.131Z,8276
2016-06-15T05:52:20.651Z,8240
2016-06-15T05:53:20.450Z,8180
2016-06-15T05:54:20.422Z,8148
2016-06-15T05:55:20.424Z,8124
2016-06-15T05:56:20.428Z,8168
2016-06-15T05:57:20.431Z,8208
2016-06-15T05:58:20.434Z,8368
2016-06-15T05:59:20.422Z,8436
2016-06-15T06:00:20.425Z,8444
2016-06-15T06:01:20.428Z,8456
2016-06-15T06:02:20.432Z,8468
2016-06-15T06:03:20.434Z,8484
2016-06-15T06:04:20.438Z,8496
2016-06-15T06:05:20.471Z,8496
2016-06-15T06:06:20.677Z,8508
2016-06-15T06:07:20.447Z,8428
2016-06-15T06:08:20.450Z,8308
2016-06-15T06:09:20.467Z,8144
2016-06-15T06:10:20.456Z,7968
2016-06-15T06:11:20.459Z,7796
2016-06-15T06:12:20.462Z,7624
2016-06-15T06:13:20.466Z,7460
2016-06-15T06:14:20.452Z,7260
2016-06-15T06:15:20.472Z,7028
2016-06-15T06:16:20.474Z,6808
2016-06-15T06:17:20.462Z,6664
2016-06-15T06:18:20.464Z,6588
2016-06-15T06:19:20.328Z,6528
2016-06-15T06:20:20.471Z,6520
2016-06-15T06:21:20.802Z,6524
2016-06-15T06:22:20.477Z,6540
2016-06-15T06:23:20.480Z,6604
2016-06-15T06:24:20.483Z,6784
2016-06-15T06:25:20.486Z,7012
2016-06-15T06:26:20.489Z,7304
2016-06-15T06:27:20.883Z,7620
2016-06-15T06:28:20.480Z,7972
2016-06-15T06:29:20.484Z,8360
2016-06-15T06:30:20.486Z,8692
2016-06-15T06:31:20.490Z,8932
2016-06-15T06:32:20.507Z,9084
2016-06-15T06:33:20.339Z,9200
2016-06-15T06:34:20.499Z,9340
2016-06-15T06:35:20.502Z,9488
2016-06-15T06:36:20.583Z,9720
2016-06-15T06:37:20.507Z,9924
2016-06-15T06:38:21.854Z,10032
2016-06-15T06:39:21.014Z,9872
2016-06-15T06:40:21.173Z,9600
2016-06-15T06:41:34.691Z,9212
2016-06-15T06:42:20.507Z,8928
2016-06-15T06:43:20.807Z,8504
2016-06-15T06:44:20.060Z,7992
2016-06-15T06:45:20.736Z,7604
2016-06-15T06:46:20.535Z,7424
2016-06-15T06:47:22.367Z,7416
2016-06-15T06:48:21.494Z,7548
2016-06-15T06:49:20.513Z,7764
2016-06-15T06:50:20.829Z,7960
2016-06-15T06:51:21.441Z,8120
2016-06-15T06:52:20.522Z,8276
2016-06-15T06:53:20.728Z,8504
2016-06-15T06:54:20.528Z,8820
2016-06-15T06:55:21.470Z,9180
2016-06-15T06:56:21.644Z,9496
2016-06-15T06:57:21.038Z,9676
2016-06-15T06:58:20.540Z,9788
2016-06-15T06:59:20.544Z,9816
2016-06-15T07:00:20.657Z,9832
2016-06-15T07:01:20.394Z,9776
2016-06-15T07:02:20.772Z,9684
2016-06-15T07:03:20.556Z,9668
2016-06-15T07:04:21.544Z,9684
2016-06-15T07:05:22.500Z,9660
2016-06-15T07:06:23.065Z,9632
2016-06-15T07:07:20.412Z,9652
2016-06-15T07:08:20.837Z,9676
2016-06-15T07:09:21.043Z,9636
2016-06-15T07:10:20.796Z,9580
2016-06-15T07:11:20.566Z,9416
2016-06-15T07:12:20.552Z,9192
2016-06-15T07:13:20.556Z,8904
2016-06-15T07:14:20.558Z,8532
2016-06-15T07:15:20.562Z,8060
2016-06-15T07:16:20.581Z,7600
2016-06-15T07:17:20.584Z,7228
2016-06-15T07:18:20.571Z,6956
2016-06-15T07:19:20.574Z,6768
2016-06-15T07:20:20.577Z,6636
2016-06-15T07:21:20.753Z,6540
2016-06-15T07:22:20.646Z,6484
2016-06-15T07:23:20.586Z,6456
2016-06-15T07:24:20.589Z,6460
2016-06-15T07:25:20.609Z,6432
2016-06-15T07:26:20.595Z,6240
2016-06-15T07:27:20.583Z,5872
2016-06-15T07:28:20.586Z,5432
2016-06-15T07:29:20.605Z,5128
2016-06-15T07:30:20.608Z,4952
2016-06-15T07:31:20.595Z,4888
2016-06-15T07:32:20.598Z,5044
2016-06-15T07:33:20.601Z,5300
2016-06-15T07:34:20.464Z,5620
2016-06-15T07:35:20.607Z,6012
2016-06-15T07:36:20.610Z,6416
2016-06-15T07:37:20.613Z,6784
2016-06-15T07:38:20.601Z,7188
2016-06-15T07:39:20.604Z,7548
2016-06-15T07:40:20.467Z,7832
2016-06-15T07:41:20.626Z,8060
2016-06-15T07:42:20.613Z,8312
2016-06-15T07:43:20.632Z,8512
2016-06-15T07:44:20.620Z,8640
2016-06-15T07:45:20.623Z,8760
2016-06-15T07:46:20.626Z,8760
2016-06-15T07:47:20.629Z,8748
2016-06-15T07:48:20.632Z,8812
2016-06-15T07:49:20.635Z,8948
2016-06-15T07:50:20.638Z,9592
2016-06-15T07:51:20.672Z,10360
2016-06-15T07:52:21.176Z,11132
2016-06-15T07:53:20.631Z,11764
2016-06-15T07:54:20.634Z,12432
2016-06-15T07:55:20.654Z,12392
2016-06-15T07:56:21.938Z,11976
2016-06-15T07:57:34.816Z,11544
2016-06-15T07:58:49.896Z,10568
2016-06-15T07:59:20.650Z,10596
2016-06-15T08:00:34.841Z,10152
2016-06-15T08:01:20.750Z,9604
2016-06-15T08:02:20.659Z,9756
2016-06-15T08:03:20.709Z,9988
2016-06-15T08:04:20.650Z,9752
2016-06-15T08:05:20.653Z,9696
2016-06-15T08:06:35.641Z,10624
2016-06-15T08:07:21.018Z,10840
2016-06-15T08:08:20.678Z,10704
2016-06-15T08:09:21.494Z,10552
2016-06-15T08:10:20.527Z,10908
2016-06-15T08:11:20.922Z,11156
2016-06-15T08:12:20.720Z,10992
2016-06-15T08:13:22.053Z,10876
2016-06-15T08:14:20.852Z,10840
2016-06-15T08:15:22.059Z,10696
2016-06-15T08:16:21.984Z,10400
2016-06-15T08:17:21.580Z,9944
2016-06-15T08:18:21.349Z,9816
2016-06-15T08:19:20.696Z,9768
2016-06-15T08:20:20.699Z,9580
2016-06-15T08:21:21.937Z,9176
2016-06-15T08:23:21.849Z,8732
2016-06-15T08:24:21.696Z,8776
2016-06-15T08:25:22.090Z,8784
2016-06-15T08:26:20.702Z,8568
2016-06-15T08:27:20.924Z,8680
2016-06-15T08:28:21.177Z,8796
2016-06-15T08:29:20.555Z,8304
2016-06-15T08:30:20.745Z,7928
2016-06-15T08:31:20.717Z,7700
2016-06-15T08:32:20.721Z,7372
2016-06-15T08:33:20.723Z,7228
2016-06-15T08:34:20.727Z,7092
2016-06-15T08:35:20.730Z,7348
2016-06-15T08:36:22.780Z,7136
2016-06-15T08:37:20.798Z,6720
2016-06-15T08:38:20.738Z,6928
2016-06-15T08:39:20.742Z,7928
2016-06-15T08:40:20.729Z,8764
2016-06-15T08:41:20.576Z,9312
2016-06-15T08:42:20.579Z,8820
2016-06-15T08:43:20.738Z,8380
2016-06-15T08:44:20.741Z,7624
2016-06-15T08:45:20.589Z,7752
2016-06-15T08:46:20.747Z,8748
2016-06-15T08:47:20.751Z,9316
2016-06-15T08:48:20.753Z,9836
2016-06-15T08:49:20.756Z,9956
2016-06-15T08:50:20.776Z,10224
2016-06-15T08:51:20.778Z,10320
2016-06-15T08:52:20.985Z,10400
2016-06-15T08:53:20.768Z,10280
2016-06-15T08:54:20.757Z,9960
2016-06-15T08:55:20.760Z,9612
2016-06-15T08:56:20.763Z,8956
2016-06-15T08:57:20.781Z,7708
2016-06-15T08:58:20.769Z,6876
2016-06-15T08:59:20.772Z,6524
2016-06-15T09:00:27.853Z,7108
2016-06-15T09:01:27.904Z,7588
2016-06-15T09:02:20.779Z,7888
2016-06-15T09:03:20.766Z,7932
2016-06-15T09:04:20.628Z,7720
2016-06-15T09:05:20.631Z,7316
2016-06-15T09:06:20.791Z,6684
2016-06-15T09:07:21.028Z,6116
2016-06-15T09:08:20.781Z,5756
2016-06-15T09:09:20.769Z,5300
2016-06-15T09:10:20.631Z,5180
2016-06-15T09:11:20.806Z,5268
2016-06-15T09:12:20.794Z,5264
2016-06-15T09:13:34.682Z,5312
2016-06-15T09:14:20.778Z,5416
2016-06-15T09:15:21.139Z,5692
2016-06-15T09:16:21.690Z,6088
2016-06-15T09:17:35.865Z,6120
2016-06-15T09:18:21.947Z,5912
2016-06-15T09:19:21.402Z,5552
2016-06-15T09:20:20.842Z,5468
2016-06-15T09:21:20.800Z,5536
2016-06-15T09:22:21.130Z,5580
2016-06-15T09:23:20.806Z,5548
2016-06-15T09:24:21.417Z,5536
2016-06-15T09:25:20.655Z,5644
2016-06-15T09:27:20.505Z,5812
2016-06-15T09:28:20.821Z,5820
2016-06-15T09:29:21.115Z,5868
2016-06-15T09:30:20.805Z,5916
2016-06-15T09:31:21.074Z,5936
2016-06-15T09:32:22.812Z,5900
2016-06-15T09:33:22.612Z,5828
2016-06-15T09:34:21.739Z,5684
2016-06-15T09:35:20.665Z,5588
2016-06-15T09:36:21.387Z,5576
2016-06-15T09:37:20.811Z,5744
2016-06-15T09:38:20.829Z,5884
2016-06-15T09:39:20.817Z,5964
2016-06-15T09:40:20.805Z,5980
2016-06-15T09:41:22.902Z,6212
2016-06-15T09:42:21.061Z,6240
2016-06-15T09:43:21.283Z,6332
2016-06-15T09:44:21.004Z,6460
2016-06-15T09:45:21.680Z,6988
2016-06-15T09:46:21.495Z,7404
2016-06-15T09:47:20.982Z,8248
2016-06-15T09:48:20.813Z,9144
2016-06-15T09:49:20.692Z,10252
2016-06-15T09:50:20.694Z,11020
2016-06-15T09:51:20.730Z,11708
2016-06-15T09:52:21.733Z,12048
2016-06-15T09:53:20.845Z,12260
2016-06-15T09:54:20.831Z,12040
2016-06-15T09:55:20.820Z,11548
2016-06-15T09:56:20.838Z,11356
2016-06-15T09:57:20.826Z,12748
2016-06-15T09:58:20.829Z,12800
2016-06-15T09:59:20.833Z,13816
2016-06-15T10:00:20.835Z,14392
2016-06-15T10:01:20.838Z,14772
2016-06-15T10:02:20.825Z,15264
2016-06-15T10:03:20.687Z,16112
2016-06-15T10:04:20.850Z,16800
2016-06-15T10:05:20.893Z,16928
2016-06-15T10:06:20.936Z,17024
2016-06-15T10:07:21.668Z,16544
2016-06-15T10:08:21.038Z,17184
2016-06-15T10:09:21.069Z,17504
2016-06-15T10:10:21.071Z,17728
2016-06-15T10:11:21.071Z,18176
2016-06-15T10:12:21.105Z,18496
2016-06-15T10:13:21.107Z,18720
2016-06-15T10:14:20.980Z,18848
2016-06-15T10:15:20.988Z,18912
2016-06-15T10:16:34.543Z,18848
2016-06-15T10:17:21.145Z,18112
2016-06-15T10:18:28.497Z,17408
2016-06-15T10:19:21.160Z,16960
2016-06-15T10:20:21.009Z,14612
2016-06-15T10:21:21.170Z,15632
2016-06-15T10:22:21.535Z,16576
2016-06-15T10:23:21.180Z,16896
2016-06-15T10:24:21.044Z,16800
2016-06-15T10:25:21.188Z,17248
2016-06-15T10:26:21.208Z,17440
2016-06-15T10:27:21.335Z,17664
2016-06-15T10:28:21.214Z,17536
2016-06-15T10:29:21.202Z,17280
2016-06-15T10:30:21.205Z,17280
2016-06-15T10:31:21.052Z,17216
2016-06-15T10:32:21.212Z,16992
2016-06-15T10:33:21.465Z,16704
2016-06-15T10:34:21.516Z,16480
2016-06-15T10:35:21.660Z,16576
2016-06-15T10:36:32.741Z,17280
2016-06-15T10:37:58.560Z,17824
2016-06-15T10:38:42.841Z,18464
2016-06-15T10:39:48.438Z,19008
2016-06-15T10:40:44.770Z,19328
2016-06-15T10:41:43.679Z,19328
2016-06-15T10:42:54.932Z,19008
2016-06-15T10:43:35.326Z,19520
2016-06-15T10:44:22.657Z,18944
2016-06-15T10:45:29.910Z,18720
2016-06-15T10:46:33.054Z,19072
2016-06-15T10:47:39.650Z,20160
2016-06-15T10:48:57.903Z,21856
2016-06-15T10:49:47.220Z,21536
2016-06-15T10:50:53.019Z,22016
2016-06-15T10:51:45.554Z,21504
2016-06-15T10:53:50.747Z,22048
2016-06-15T10:55:47.488Z,23936
2016-06-15T10:55:59.831Z,24032
2016-06-15T10:56:59.834Z,24256
2016-06-15T10:57:59.837Z,24416
2016-06-15T10:58:59.840Z,24480
2016-06-15T11:00:02.157Z,24192
2016-06-15T11:00:59.847Z,23552
2016-06-15T11:01:59.866Z,23392
2016-06-15T11:03:01.010Z,22432
2016-06-15T11:03:59.872Z,21248
2016-06-15T11:05:00.344Z,21120
2016-06-15T11:05:59.862Z,22592
2016-06-15T11:07:00.366Z,23072
2016-06-15T11:07:59.587Z,21248
2016-06-15T11:08:59.903Z,19232
2016-06-15T11:09:59.735Z,19584
2016-06-15T11:10:59.893Z,21504
2016-06-15T11:11:59.913Z,22528
2016-06-15T11:12:59.744Z,22592
2016-06-15T11:13:59.747Z,22176
2016-06-15T11:14:59.921Z,22304
2016-06-15T11:15:59.909Z,22336
2016-06-15T11:16:59.928Z,22208
2016-06-15T11:17:59.931Z,21600
2016-06-15T11:18:59.935Z,20416
2016-06-15T11:19:59.937Z,17952
2016-06-15T11:20:59.956Z,18272
2016-06-15T11:22:00.678Z,18624
2016-06-15T11:23:00.274Z,18496
2016-06-15T11:23:59.964Z,17312
2016-06-15T11:24:59.968Z,15856
2016-06-15T11:25:59.986Z,14836
2016-06-15T11:26:59.974Z,14912
2016-06-15T11:28:00.133Z,16096
2016-06-15T11:28:59.979Z,16992
2016-06-15T11:29:59.983Z,17216
2016-06-15T11:30:59.986Z,17280
2016-06-15T11:31:59.989Z,17472
2016-06-15T11:32:59.992Z,16544
2016-06-15T11:33:59.698Z,14972
2016-06-15T11:35:00.014Z,14616
2016-06-15T11:35:59.862Z,15632
2016-06-15T11:37:01.802Z,17408
2016-06-15T11:38:00.835Z,18176
2016-06-15T11:39:00.026Z,18240
2016-06-15T11:40:00.029Z,16416
2016-06-15T11:41:00.047Z,17632
2016-06-15T11:42:00.051Z,19296
2016-06-15T11:43:00.039Z,19808
2016-06-15T11:44:00.057Z,20000
2016-06-15T11:45:00.045Z,20096
2016-06-15T11:46:00.063Z,19360
2016-06-15T11:46:59.911Z,18944
2016-06-15T11:48:00.069Z,19360
2016-06-15T11:48:59.932Z,19584
2016-06-15T11:50:00.092Z,19808
2016-06-15T11:51:00.094Z,20160
2016-06-15T11:52:00.239Z,20576
2016-06-15T11:53:00.898Z,21056
2016-06-15T11:54:00.104Z,21312
2016-06-15T11:55:00.263Z,21504
2016-06-15T11:56:00.156Z,21312
2016-06-15T11:57:00.410Z,20928
2016-06-15T11:58:00.116Z,20480
2016-06-15T11:59:00.119Z,19744
2016-06-15T12:00:00.123Z,18304
2016-06-15T12:01:00.141Z,17824
2016-06-15T12:02:01.488Z,17280
2016-06-15T12:03:15.773Z,16864
2016-06-15T12:04:00.541Z,16800
2016-06-15T12:05:00.154Z,16384
2016-06-15T12:06:00.156Z,16288
2016-06-15T12:07:00.207Z,16672
2016-06-15T12:08:00.771Z,16576
2016-06-15T12:09:02.556Z,16896
2016-06-15T12:10:00.591Z,16960
2016-06-15T12:11:01.125Z,17376
2016-06-15T12:12:00.706Z,17792
2016-06-15T12:13:00.100Z,18048
2016-06-15T12:14:00.618Z,18400
2016-06-15T12:15:00.560Z,17440
2016-06-15T12:16:00.578Z,16736
2016-06-15T12:17:00.205Z,14904
2016-06-15T12:18:02.208Z,15280
2016-06-15T12:19:01.681Z,14420
2016-06-15T12:20:00.231Z,13800
2016-06-15T12:21:00.750Z,15348
2016-06-15T12:22:00.956Z,17888
2016-06-15T12:23:01.208Z,20128
2016-06-15T12:24:00.259Z,22368
2016-06-15T12:25:00.590Z,24000
2016-06-15T12:26:00.249Z,24160
2016-06-15T12:27:00.252Z,25376
2016-06-15T12:28:00.255Z,26880
2016-06-15T12:29:00.258Z,27424
2016-06-15T12:30:00.278Z,28416
2016-06-15T12:31:00.265Z,28704
2016-06-15T12:32:00.127Z,28096
2016-06-15T12:33:00.286Z,25952
2016-06-15T12:34:00.132Z,23424
2016-06-15T12:35:00.293Z,20672
2016-06-15T12:36:00.217Z,17504
2016-06-15T12:37:00.298Z,14852
2016-06-15T12:38:01.536Z,14628
2016-06-15T12:39:00.320Z,16320
2016-06-15T12:40:00.323Z,18112
2016-06-15T12:41:00.327Z,21088
2016-06-15T12:42:00.360Z,22880
2016-06-15T12:43:00.176Z,20800
2016-06-15T12:44:00.351Z,19168
2016-06-15T12:45:00.355Z,17760
2016-06-15T12:46:00.373Z,16160
2016-06-15T12:47:00.361Z,14516
2016-06-15T12:48:00.395Z,12924
2016-06-15T12:49:00.381Z,12496
2016-06-15T12:50:00.214Z,13076
2016-06-15T12:51:00.388Z,12912
2016-06-15T12:52:00.407Z,12280
2016-06-15T12:53:00.394Z,11708
2016-06-15T12:54:00.397Z,11380
2016-06-15T12:55:00.417Z,11208
2016-06-15T12:56:00.403Z,11768
2016-06-15T12:57:00.406Z,14212
2016-06-15T12:58:00.425Z,16832
2016-06-15T12:59:00.413Z,18528
2016-06-15T13:00:00.682Z,18816
2016-06-15T13:01:00.435Z,18368
2016-06-15T13:02:00.454Z,18144
2016-06-15T13:03:00.457Z,19840
2016-06-15T13:04:00.460Z,20384
2016-06-15T13:05:00.463Z,17408
2016-06-15T13:06:00.466Z,16288
2016-06-15T13:07:00.312Z,17152
2016-06-15T13:08:00.815Z,18560
2016-06-15T13:09:00.490Z,19008
2016-06-15T13:10:00.338Z,18080
2016-06-15T13:11:02.184Z,17024
2016-06-15T13:12:00.499Z,16832
2016-06-15T13:13:00.488Z,19584
2016-06-15T13:14:00.708Z,21792
2016-06-15T13:15:00.916Z,22016
2016-06-15T13:16:00.809Z,22848
2016-06-15T13:17:00.515Z,23776
2016-06-15T13:18:00.534Z,24800
2016-06-15T13:19:00.537Z,25952
2016-06-15T13:21:01.841Z,27296
2016-06-15T13:22:00.546Z,27552
2016-06-15T13:23:01.018Z,27776
2016-06-15T13:24:00.553Z,27936
2016-06-15T13:25:01.117Z,27840
2016-06-15T13:26:00.559Z,27168
2016-06-15T13:27:01.343Z,26144
2016-06-15T13:29:02.458Z,24480
2016-06-15T13:30:01.227Z,25376
2016-06-15T13:31:01.621Z,24832
2016-06-15T13:32:01.483Z,23616
2016-06-15T13:33:01.752Z,21120